Pride Of Bruges — PGJW — position and weather

sailwx.info

Track history (hours):
 
Tides and Currents Weather Stations Pressure Air Temp Water Temp Dewpoint Dewpoint Depression Visibility Wind Speed Wind Dir Waves Ship Positions

Pride Of Bruges

Operator: P&O Ferries

Last reported at 2017-Mar-27 06:33 UTC. Time now 2017-Mar-27 06:50 UTC.
Position N 53°44' W 000°17'.

Length 180 m; draft 5.5 m.

Type: Ship. MMSI: 244387000.

Date/timePositionNaut miles runAvg speedWind from/ knotsBaromVisibWave heightAir tempDewpointWater temp
2017-Mar-27 06:33N 53°44' W 000°17'1111.0
2017-Mar-27 05:33N 53°37' W 000°04'1514.6
2017-Mar-27 04:33N 53°31' E 000°19'2813.7
2017-Mar-27 02:33N 53°11' E 000°50'1615.8
2017-Mar-27 01:33N 53°01' E 001°11'1717.3
2017-Mar-27 00:33N 52°54' E 001°37'1716.9
2017-Mar-26 23:33N 52°42' E 001°57'1615.9
2017-Mar-26 22:33N 52°29' E 002°11'1714.7
2017-Mar-26 21:23N 52°13' E 002°22'1214.6
2017-Mar-26 20:32N 52°02' E 002°31'1414.5
2017-Mar-26 19:33N 51°48' E 002°39'1514.7
2017-Mar-26 18:33N 51°35' E 002°48'1514.7
2017-Mar-26 17:33N 51°24' E 003°05'6 5.7
2017-Mar-26 16:31N 51°20' E 003°11'0 0.0
2017-Mar-26 15:31N 51°20' E 003°11'0 0.0
2017-Mar-26 14:31N 51°20' E 003°11'0 0.0
2017-Mar-26 13:33N 51°20' E 003°11'0 0.0
2017-Mar-26 12:33N 51°20' E 003°11'0 0.0
2017-Mar-26 11:32N 51°20' E 003°11'0 0.0
2017-Mar-26 10:32N 51°20' E 003°11'0 0.0
2017-Mar-26 09:31N 51°20' E 003°11'0 0.0
2017-Mar-26 08:28N 51°20' E 003°11'6 6.2
2017-Mar-26 07:33N 51°24' E 003°05'1615.6
2017-Mar-26 06:33N 51°35' E 002°47'1816.6
2017-Mar-26 05:28N 51°52' E 002°36'3316.1
2017-Mar-26 03:24N 52°23' E 002°15'1315.3
2017-Mar-26 02:33N 52°34' E 002°05'1414.5
2017-Mar-26 01:33N 52°46' E 001°51'1414.1
2017-Mar-26 00:33N 52°56' E 001°34'1414.3
2017-Mar-25 23:33N 53°07' E 001°19'1514.7
2017-Mar-25 22:33N 53°18' E 001°03'1212.4
2017-Mar-25 21:33N 53°25' E 000°46'1616.3
2017-Mar-25 20:33N 53°32' E 000°21'1818.0
2017-Mar-25 19:33N 53°38' W 000°08'9 8.6
2017-Mar-25 18:33N 53°45' W 000°16'0 0.1
2017-Mar-25 17:32N 53°45' W 000°16'0 0.0
2017-Mar-25 16:31N 53°45' W 000°16'0 0.0
2017-Mar-25 15:31N 53°45' W 000°16'0 0.0
2017-Mar-25 14:33N 53°45' W 000°16'0 0.0
2017-Mar-25 13:33N 53°45' W 000°16'0 0.0
2017-Mar-25 12:32N 53°45' W 000°16'0 0.0
2017-Mar-25 11:32N 53°45' W 000°16'0 0.0
2017-Mar-25 10:32N 53°45' W 000°16'0 0.0
2017-Mar-25 09:32N 53°45' W 000°16'0 0.2
2017-Mar-25 08:33N 53°44' W 000°17'8 8.3
2017-Mar-25 07:33N 53°38' W 000°08'1210.8
2017-Mar-25 06:26N 53°33' E 000°10'1213.5
2017-Mar-25 05:33N 53°31' E 000°30'1414.1
2017-Mar-25 04:33N 53°23' E 000°50'1413.8
2017-Mar-25 03:33N 53°14' E 001°08'1414.4
2017-Mar-25 02:33N 53°04' E 001°24'1615.7
2017-Mar-25 01:33N 52°53' E 001°42'1616.1
2017-Mar-25 00:34N 52°42' E 002°01'1616.3
2017-Mar-24 23:33N 52°27' E 002°13'1615.9
2017-Mar-24 22:33N 52°13' E 002°24'1715.5
2017-Mar-24 21:29N 51°57' E 002°36'1314.5
2017-Mar-24 20:34N 51°45' E 002°43'1414.0
2017-Mar-24 19:34N 51°32' E 002°52'1514.9
2017-Mar-24 18:34N 51°23' E 003°10'2 2.3
2017-Mar-24 17:32N 51°20' E 003°11'0 0.0
2017-Mar-24 16:32N 51°20' E 003°11'0 0.0
2017-Mar-24 15:31N 51°20' E 003°11'0 0.0
2017-Mar-24 14:31N 51°20' E 003°11'0 0.0
2017-Mar-24 13:33N 51°20' E 003°11'0 0.0
2017-Mar-24 12:33N 51°20' E 003°11'0 0.0
2017-Mar-24 11:29N 51°20' E 003°11'0 0.0
2017-Mar-24 10:32N 51°20' E 003°11'0 0.0
2017-Mar-24 09:32N 51°20' E 003°11'0 0.0
2017-Mar-24 08:31N 51°20' E 003°11'0 0.0
2017-Mar-24 07:31N 51°20' E 003°11'0 0.0
2017-Mar-24 06:33N 51°20' E 003°11'0 0.0
2017-Mar-24 05:33N 51°20' E 003°11'0 0.0
2017-Mar-24 04:32N 51°20' E 003°11'0 0.0
2017-Mar-24 03:32N 51°20' E 003°11'0 0.0
2017-Mar-24 02:31N 51°20' E 003°11'0 0.0
2017-Mar-24 01:32N 51°20' E 003°11'0 0.0
2017-Mar-24 00:33N 51°20' E 003°11'0 0.0
2017-Mar-23 23:33N 51°20' E 003°11'0 0.0
2017-Mar-23 22:33N 51°20' E 003°11'0 0.0
2017-Mar-23 21:32N 51°20' E 003°11'0 0.0
2017-Mar-23 20:32N 51°20' E 003°11'0 0.0
2017-Mar-23 19:31N 51°20' E 003°11'0 0.2
2017-Mar-23 18:33N 51°20' E 003°12'0 0.1
2017-Mar-23 17:32N 51°21' E 003°11'0 0.0
2017-Mar-23 16:32N 51°21' E 003°11'0 0.0
2017-Mar-23 15:31N 51°21' E 003°11'0 0.0
2017-Mar-23 14:31N 51°21' E 003°11'0 0.0
2017-Mar-23 13:34N 51°21' E 003°11'0 0.0
2017-Mar-23 12:33N 51°21' E 003°11'0 0.0
2017-Mar-23 11:33N 51°21' E 003°11'0 0.0
2017-Mar-23 10:32N 51°21' E 003°11'0 0.0
2017-Mar-23 09:32N 51°21' E 003°11'0 0.0
2017-Mar-23 08:31N 51°21' E 003°11'0 0.0
2017-Mar-23 07:31N 51°21' E 003°11'0 0.0
2017-Mar-23 06:30N 51°21' E 003°11'0 0.0
2017-Mar-23 05:33N 51°21' E 003°11'0 0.0
2017-Mar-23 04:33N 51°21' E 003°11'0 0.0
2017-Mar-23 03:32N 51°21' E 003°11'0 0.0
2017-Mar-23 02:32N 51°21' E 003°11'0 0.0
2017-Mar-23 01:31N 51°21' E 003°11'0 0.0
2017-Mar-23 00:28N 51°21' E 003°11'0 0.0
2017-Mar-22 23:33N 51°21' E 003°11'0 0.0
2017-Mar-22 22:33N 51°21' E 003°11'0 0.0
2017-Mar-22 21:33N 51°21' E 003°11'0 0.0
2017-Mar-22 20:32N 51°21' E 003°11'0 0.0
2017-Mar-22 19:32N 51°21' E 003°11'0 0.0
2017-Mar-22 18:33N 51°21' E 003°11'0 0.0
2017-Mar-22 17:33N 51°21' E 003°11'0 0.0
2017-Mar-22 16:30N 51°21' E 003°11'0 0.0
2017-Mar-22 15:30N 51°21' E 003°11'0 0.0
2017-Mar-22 14:33N 51°21' E 003°11'0 0.0
2017-Mar-22 13:32N 51°21' E 003°11'0 0.0
2017-Mar-22 12:32N 51°21' E 003°11'0 0.0
2017-Mar-22 11:31N 51°21' E 003°11'0 0.0
2017-Mar-22 10:31N 51°21' E 003°11'0 0.0
2017-Mar-22 09:34N 51°21' E 003°11'0 0.0
2017-Mar-22 08:33N 51°21' E 003°11'0 0.0
2017-Mar-22 07:33N 51°21' E 003°11'0 0.0
2017-Mar-22 06:32N 51°21' E 003°11'0 0.0
2017-Mar-22 05:32N 51°21' E 003°11'0 0.0
2017-Mar-22 04:31N 51°21' E 003°11'0 0.0
2017-Mar-22 03:31N 51°21' E 003°11'0 0.0
2017-Mar-22 02:33N 51°21' E 003°11'0 0.0
2017-Mar-22 01:33N 51°21' E 003°11'0 0.0
2017-Mar-22 00:33N 51°21' E 003°11'0 0.0
2017-Mar-21 23:29N 51°21' E 003°11'0 0.0
2017-Mar-21 22:32N 51°21' E 003°11'0 0.0
2017-Mar-21 21:28N 51°21' E 003°11'0 0.0
2017-Mar-21 20:31N 51°21' E 003°11'0 0.0
2017-Mar-21 19:33N 51°21' E 003°11'0 0.0
2017-Mar-21 18:33N 51°21' E 003°11'0 0.0
2017-Mar-21 17:32N 51°21' E 003°11'0 0.0
2017-Mar-21 16:32N 51°21' E 003°11'0 0.0
2017-Mar-21 15:32N 51°21' E 003°11'0 0.0
2017-Mar-21 14:31N 51°21' E 003°11'0 0.0
2017-Mar-21 13:31N 51°21' E 003°11'0 0.0
2017-Mar-21 12:33N 51°21' E 003°11'0 0.0
2017-Mar-21 11:30N 51°21' E 003°11'0 0.0
2017-Mar-21 10:32N 51°21' E 003°11'0 0.0
2017-Mar-21 09:29N 51°21' E 003°11'0 0.0
2017-Mar-21 08:32N 51°21' E 003°11'0 0.0
2017-Mar-21 07:31N 51°21' E 003°11'3 3.1
2017-Mar-21 06:34N 51°23' E 003°09'1010.4
2017-Mar-21 05:33N 51°33' E 003°04'1413.8
2017-Mar-21 04:34N 51°46' E 003°12'1514.1
2017-Mar-21 03:30N 51°60' E 003°20'3316.8
2017-Mar-21 01:33N 52°30' E 003°38'2317.1
2017-Mar-21 00:11N 52°51' E 003°57'1214.7
2017-Mar-20 23:23N 53°01' E 004°08'2815.3
2017-Mar-20 21:33N 53°25' E 004°32'1413.9
2017-Mar-20 20:32N 53°38' E 004°40'13414.6
2017-Mar-20 11:19N 55°36' E 006°32'18714.7
2017-Mar-19 22:33N 57°49' E 010°32'1514.9
2017-Mar-19 21:33N 57°43' E 010°58'1616.1
2017-Mar-19 20:34N 57°34' E 011°21'1716.6
2017-Mar-19 19:34N 57°18' E 011°33'5816.8
2017-Mar-19 16:07N 56°23' E 012°04'915.6
2017-Mar-19 15:32N 56°15' E 012°13'1616.6
2017-Mar-19 14:33N 56°05' E 012°36'1616.1
2017-Mar-19 13:34N 55°50' E 012°44'1414.0
2017-Mar-19 12:33N 55°37' E 012°53'1515.1
2017-Mar-19 11:33N 55°24' E 012°42'1413.9
2017-Mar-19 10:33N 55°14' E 012°60'1616.2
2017-Mar-19 09:33N 55°07' E 013°25'1716.5
2017-Mar-19 08:33N 55°00' E 013°52'1615.9
2017-Mar-19 07:33N 54°54' E 014°17'1615.8
2017-Mar-19 06:33N 54°53' E 014°44'1616.0
2017-Mar-19 05:33N 54°52' E 015°12'1615.8
2017-Mar-19 04:33N 54°51' E 015°39'1615.7
2017-Mar-19 03:33N 54°50' E 016°07'6115.2
2017-Mar-18 23:33N 54°57' E 017°52'1413.9
2017-Mar-18 22:33N 54°56' E 018°16'1313.3
2017-Mar-18 21:34N 54°52' E 018°38'1414.4
2017-Mar-18 20:33N 54°42' E 018°57'1515.2
2017-Mar-18 19:33N 54°29' E 018°44'7 6.7
2017-Mar-18 18:33N 54°23' E 018°40'0 0.2
2017-Mar-18 17:33N 54°23' E 018°40'0 0.0
2017-Mar-18 16:33N 54°23' E 018°40'0 0.0
2017-Mar-18 15:33N 54°23' E 018°40'0 0.0
2017-Mar-18 14:33N 54°23' E 018°40'0 0.0
2017-Mar-18 13:33N 54°23' E 018°40'0 0.0
2017-Mar-18 12:33N 54°23' E 018°40'0 0.0
2017-Mar-18 11:33N 54°23' E 018°40'0 0.0
2017-Mar-18 10:33N 54°23' E 018°40'0 0.0
2017-Mar-18 09:33N 54°23' E 018°40'0 0.0
2017-Mar-18 08:33N 54°23' E 018°40'0 0.0
2017-Mar-18 07:33N 54°23' E 018°40'0 0.0
2017-Mar-18 06:33N 54°23' E 018°40'0 0.0
2017-Mar-18 05:33N 54°23' E 018°40'0 0.0
2017-Mar-18 04:33N 54°23' E 018°40'0 0.0
2017-Mar-18 03:33N 54°23' E 018°40'0 0.0
2017-Mar-18 02:33N 54°23' E 018°40'0 0.0
2017-Mar-18 01:33N 54°23' E 018°40'0 0.0
2017-Mar-18 00:33N 54°23' E 018°40'0 0.0
2017-Mar-17 23:33N 54°23' E 018°40'0 0.0
2017-Mar-17 22:33N 54°23' E 018°40'0 0.0
2017-Mar-17 21:33N 54°23' E 018°40'0 0.0
2017-Mar-17 20:34N 54°23' E 018°40'0 0.0
2017-Mar-17 19:33N 54°23' E 018°40'0 0.0
2017-Mar-17 18:33N 54°23' E 018°40'0 0.0
2017-Mar-17 17:33N 54°23' E 018°40'0 0.0
2017-Mar-17 16:33N 54°23' E 018°40'0 0.0
2017-Mar-17 15:33N 54°23' E 018°40'0 0.3
2017-Mar-17 14:33N 54°23' E 018°39'0 0.1
2017-Mar-17 13:33N 54°23' E 018°39'0 0.0
2017-Mar-17 12:33N 54°23' E 018°39'0 0.0
2017-Mar-17 11:33N 54°23' E 018°39'0 0.0
2017-Mar-17 10:33N 54°23' E 018°39'0 0.0
2017-Mar-17 09:33N 54°23' E 018°39'0 0.0
2017-Mar-17 08:33N 54°23' E 018°39'0 0.0
2017-Mar-17 07:34N 54°23' E 018°39'0 0.0
2017-Mar-17 06:34N 54°23' E 018°39'  
Track history (hours):
 
Tides and Currents Weather Stations Pressure Air Temp Water Temp Dewpoint Dewpoint Depression Visibility Wind Speed Wind Dir Waves Ship Positions

Pride Of Bruges

Operator: P&O Ferries

Last reported at 2017-Mar-27 06:33 UTC. Time now 2017-Mar-27 06:50 UTC.
Position N 53°44' W 000°17'.

Length 180 m; draft 5.5 m.

Type: Ship. MMSI: 244387000.

Date/timePositionNaut miles runAvg speedWind from/ knotsBaromVisibWave heightAir tempDewpointWater temp
2017-Mar-27 06:33N 53°44' W 000°17'1111.0
2017-Mar-27 05:33N 53°37' W 000°04'1514.6
2017-Mar-27 04:33N 53°31' E 000°19'2813.7
2017-Mar-27 02:33N 53°11' E 000°50'1615.8
2017-Mar-27 01:33N 53°01' E 001°11'1717.3
2017-Mar-27 00:33N 52°54' E 001°37'1716.9
2017-Mar-26 23:33N 52°42' E 001°57'1615.9
2017-Mar-26 22:33N 52°29' E 002°11'1714.7
2017-Mar-26 21:23N 52°13' E 002°22'1214.6
2017-Mar-26 20:32N 52°02' E 002°31'1414.5
2017-Mar-26 19:33N 51°48' E 002°39'1514.7
2017-Mar-26 18:33N 51°35' E 002°48'1514.7
2017-Mar-26 17:33N 51°24' E 003°05'6 5.7
2017-Mar-26 16:31N 51°20' E 003°11'0 0.0
2017-Mar-26 15:31N 51°20' E 003°11'0 0.0
2017-Mar-26 14:31N 51°20' E 003°11'0 0.0
2017-Mar-26 13:33N 51°20' E 003°11'0 0.0
2017-Mar-26 12:33N 51°20' E 003°11'0 0.0
2017-Mar-26 11:32N 51°20' E 003°11'0 0.0
2017-Mar-26 10:32N 51°20' E 003°11'0 0.0
2017-Mar-26 09:31N 51°20' E 003°11'0 0.0
2017-Mar-26 08:28N 51°20' E 003°11'6 6.2
2017-Mar-26 07:33N 51°24' E 003°05'1615.6
2017-Mar-26 06:33N 51°35' E 002°47'1816.6
2017-Mar-26 05:28N 51°52' E 002°36'3316.1
2017-Mar-26 03:24N 52°23' E 002°15'1315.3
2017-Mar-26 02:33N 52°34' E 002°05'1414.5
2017-Mar-26 01:33N 52°46' E 001°51'1414.1
2017-Mar-26 00:33N 52°56' E 001°34'1414.3
2017-Mar-25 23:33N 53°07' E 001°19'1514.7
2017-Mar-25 22:33N 53°18' E 001°03'1212.4
2017-Mar-25 21:33N 53°25' E 000°46'1616.3
2017-Mar-25 20:33N 53°32' E 000°21'1818.0
2017-Mar-25 19:33N 53°38' W 000°08'9 8.6
2017-Mar-25 18:33N 53°45' W 000°16'0 0.1
2017-Mar-25 17:32N 53°45' W 000°16'0 0.0
2017-Mar-25 16:31N 53°45' W 000°16'0 0.0
2017-Mar-25 15:31N 53°45' W 000°16'0 0.0
2017-Mar-25 14:33N 53°45' W 000°16'0 0.0
2017-Mar-25 13:33N 53°45' W 000°16'0 0.0
2017-Mar-25 12:32N 53°45' W 000°16'0 0.0
2017-Mar-25 11:32N 53°45' W 000°16'0 0.0
2017-Mar-25 10:32N 53°45' W 000°16'0 0.0
2017-Mar-25 09:32N 53°45' W 000°16'0 0.2
2017-Mar-25 08:33N 53°44' W 000°17'8 8.3
2017-Mar-25 07:33N 53°38' W 000°08'1210.8
2017-Mar-25 06:26N 53°33' E 000°10'1213.5
2017-Mar-25 05:33N 53°31' E 000°30'1414.1
2017-Mar-25 04:33N 53°23' E 000°50'1413.8
2017-Mar-25 03:33N 53°14' E 001°08'1414.4
2017-Mar-25 02:33N 53°04' E 001°24'1615.7
2017-Mar-25 01:33N 52°53' E 001°42'1616.1
2017-Mar-25 00:34N 52°42' E 002°01'1616.3
2017-Mar-24 23:33N 52°27' E 002°13'1615.9
2017-Mar-24 22:33N 52°13' E 002°24'1715.5
2017-Mar-24 21:29N 51°57' E 002°36'1314.5
2017-Mar-24 20:34N 51°45' E 002°43'1414.0
2017-Mar-24 19:34N 51°32' E 002°52'1514.9
2017-Mar-24 18:34N 51°23' E 003°10'2 2.3
2017-Mar-24 17:32N 51°20' E 003°11'0 0.0
2017-Mar-24 16:32N 51°20' E 003°11'0 0.0
2017-Mar-24 15:31N 51°20' E 003°11'0 0.0
2017-Mar-24 14:31N 51°20' E 003°11'0 0.0
2017-Mar-24 13:33N 51°20' E 003°11'0 0.0
2017-Mar-24 12:33N 51°20' E 003°11'0 0.0
2017-Mar-24 11:29N 51°20' E 003°11'0 0.0
2017-Mar-24 10:32N 51°20' E 003°11'0 0.0
2017-Mar-24 09:32N 51°20' E 003°11'0 0.0
2017-Mar-24 08:31N 51°20' E 003°11'0 0.0
2017-Mar-24 07:31N 51°20' E 003°11'0 0.0
2017-Mar-24 06:33N 51°20' E 003°11'0 0.0
2017-Mar-24 05:33N 51°20' E 003°11'0 0.0
2017-Mar-24 04:32N 51°20' E 003°11'0 0.0
2017-Mar-24 03:32N 51°20' E 003°11'0 0.0
2017-Mar-24 02:31N 51°20' E 003°11'0 0.0
2017-Mar-24 01:32N 51°20' E 003°11'0 0.0
2017-Mar-24 00:33N 51°20' E 003°11'0 0.0
2017-Mar-23 23:33N 51°20' E 003°11'0 0.0
2017-Mar-23 22:33N 51°20' E 003°11'0 0.0
2017-Mar-23 21:32N 51°20' E 003°11'0 0.0
2017-Mar-23 20:32N 51°20' E 003°11'0 0.0
2017-Mar-23 19:31N 51°20' E 003°11'0 0.2
2017-Mar-23 18:33N 51°20' E 003°12'0 0.1
2017-Mar-23 17:32N 51°21' E 003°11'0 0.0
2017-Mar-23 16:32N 51°21' E 003°11'0 0.0
2017-Mar-23 15:31N 51°21' E 003°11'0 0.0
2017-Mar-23 14:31N 51°21' E 003°11'0 0.0
2017-Mar-23 13:34N 51°21' E 003°11'0 0.0
2017-Mar-23 12:33N 51°21' E 003°11'0 0.0
2017-Mar-23 11:33N 51°21' E 003°11'0 0.0
2017-Mar-23 10:32N 51°21' E 003°11'0 0.0
2017-Mar-23 09:32N 51°21' E 003°11'0 0.0
2017-Mar-23 08:31N 51°21' E 003°11'0 0.0
2017-Mar-23 07:31N 51°21' E 003°11'0 0.0
2017-Mar-23 06:30N 51°21' E 003°11'0 0.0
2017-Mar-23 05:33N 51°21' E 003°11'0 0.0
2017-Mar-23 04:33N 51°21' E 003°11'0 0.0
2017-Mar-23 03:32N 51°21' E 003°11'0 0.0
2017-Mar-23 02:32N 51°21' E 003°11'0 0.0
2017-Mar-23 01:31N 51°21' E 003°11'0 0.0
2017-Mar-23 00:28N 51°21' E 003°11'0 0.0
2017-Mar-22 23:33N 51°21' E 003°11'0 0.0
2017-Mar-22 22:33N 51°21' E 003°11'0 0.0
2017-Mar-22 21:33N 51°21' E 003°11'0 0.0
2017-Mar-22 20:32N 51°21' E 003°11'0 0.0
2017-Mar-22 19:32N 51°21' E 003°11'0 0.0
2017-Mar-22 18:33N 51°21' E 003°11'0 0.0
2017-Mar-22 17:33N 51°21' E 003°11'0 0.0
2017-Mar-22 16:30N 51°21' E 003°11'0 0.0
2017-Mar-22 15:30N 51°21' E 003°11'0 0.0
2017-Mar-22 14:33N 51°21' E 003°11'0 0.0
2017-Mar-22 13:32N 51°21' E 003°11'0 0.0
2017-Mar-22 12:32N 51°21' E 003°11'0 0.0
2017-Mar-22 11:31N 51°21' E 003°11'0 0.0
2017-Mar-22 10:31N 51°21' E 003°11'0 0.0
2017-Mar-22 09:34N 51°21' E 003°11'0 0.0
2017-Mar-22 08:33N 51°21' E 003°11'0 0.0
2017-Mar-22 07:33N 51°21' E 003°11'0 0.0
2017-Mar-22 06:32N 51°21' E 003°11'0 0.0
2017-Mar-22 05:32N 51°21' E 003°11'0 0.0
2017-Mar-22 04:31N 51°21' E 003°11'0 0.0
2017-Mar-22 03:31N 51°21' E 003°11'0 0.0
2017-Mar-22 02:33N 51°21' E 003°11'0 0.0
2017-Mar-22 01:33N 51°21' E 003°11'0 0.0
2017-Mar-22 00:33N 51°21' E 003°11'0 0.0
2017-Mar-21 23:29N 51°21' E 003°11'0 0.0
2017-Mar-21 22:32N 51°21' E 003°11'0 0.0
2017-Mar-21 21:28N 51°21' E 003°11'0 0.0
2017-Mar-21 20:31N 51°21' E 003°11'0 0.0
2017-Mar-21 19:33N 51°21' E 003°11'0 0.0
2017-Mar-21 18:33N 51°21' E 003°11'0 0.0
2017-Mar-21 17:32N 51°21' E 003°11'0 0.0
2017-Mar-21 16:32N 51°21' E 003°11'0 0.0
2017-Mar-21 15:32N 51°21' E 003°11'0 0.0
2017-Mar-21 14:31N 51°21' E 003°11'0 0.0
2017-Mar-21 13:31N 51°21' E 003°11'0 0.0
2017-Mar-21 12:33N 51°21' E 003°11'0 0.0
2017-Mar-21 11:30N 51°21' E 003°11'0 0.0
2017-Mar-21 10:32N 51°21' E 003°11'0 0.0
2017-Mar-21 09:29N 51°21' E 003°11'0 0.0
2017-Mar-21 08:32N 51°21' E 003°11'0 0.0
2017-Mar-21 07:31N 51°21' E 003°11'3 3.1
2017-Mar-21 06:34N 51°23' E 003°09'1010.4
2017-Mar-21 05:33N 51°33' E 003°04'1413.8
2017-Mar-21 04:34N 51°46' E 003°12'1514.1
2017-Mar-21 03:30N 51°60' E 003°20'3316.8
2017-Mar-21 01:33N 52°30' E 003°38'2317.1
2017-Mar-21 00:11N 52°51' E 003°57'1214.7
2017-Mar-20 23:23N 53°01' E 004°08'2815.3
2017-Mar-20 21:33N 53°25' E 004°32'1413.9
2017-Mar-20 20:32N 53°38' E 004°40'13414.6
2017-Mar-20 11:19N 55°36' E 006°32'18714.7
2017-Mar-19 22:33N 57°49' E 010°32'1514.9
2017-Mar-19 21:33N 57°43' E 010°58'1616.1
2017-Mar-19 20:34N 57°34' E 011°21'1716.6
2017-Mar-19 19:34N 57°18' E 011°33'5816.8
2017-Mar-19 16:07N 56°23' E 012°04'915.6
2017-Mar-19 15:32N 56°15' E 012°13'1616.6
2017-Mar-19 14:33N 56°05' E 012°36'1616.1
2017-Mar-19 13:34N 55°50' E 012°44'1414.0
2017-Mar-19 12:33N 55°37' E 012°53'1515.1
2017-Mar-19 11:33N 55°24' E 012°42'1413.9
2017-Mar-19 10:33N 55°14' E 012°60'1616.2
2017-Mar-19 09:33N 55°07' E 013°25'1716.5
2017-Mar-19 08:33N 55°00' E 013°52'1615.9
2017-Mar-19 07:33N 54°54' E 014°17'1615.8
2017-Mar-19 06:33N 54°53' E 014°44'1616.0
2017-Mar-19 05:33N 54°52' E 015°12'1615.8
2017-Mar-19 04:33N 54°51' E 015°39'1615.7
2017-Mar-19 03:33N 54°50' E 016°07'6115.2
2017-Mar-18 23:33N 54°57' E 017°52'1413.9
2017-Mar-18 22:33N 54°56' E 018°16'1313.3
2017-Mar-18 21:34N 54°52' E 018°38'1414.4
2017-Mar-18 20:33N 54°42' E 018°57'1515.2
2017-Mar-18 19:33N 54°29' E 018°44'7 6.7
2017-Mar-18 18:33N 54°23' E 018°40'0 0.2
2017-Mar-18 17:33N 54°23' E 018°40'0 0.0
2017-Mar-18 16:33N 54°23' E 018°40'0 0.0
2017-Mar-18 15:33N 54°23' E 018°40'0 0.0
2017-Mar-18 14:33N 54°23' E 018°40'0 0.0
2017-Mar-18 13:33N 54°23' E 018°40'0 0.0
2017-Mar-18 12:33N 54°23' E 018°40'0 0.0
2017-Mar-18 11:33N 54°23' E 018°40'0 0.0
2017-Mar-18 10:33N 54°23' E 018°40'0 0.0
2017-Mar-18 09:33N 54°23' E 018°40'0 0.0
2017-Mar-18 08:33N 54°23' E 018°40'0 0.0
2017-Mar-18 07:33N 54°23' E 018°40'0 0.0
2017-Mar-18 06:33N 54°23' E 018°40'0 0.0
2017-Mar-18 05:33N 54°23' E 018°40'0 0.0
2017-Mar-18 04:33N 54°23' E 018°40'0 0.0
2017-Mar-18 03:33N 54°23' E 018°40'0 0.0
2017-Mar-18 02:33N 54°23' E 018°40'0 0.0
2017-Mar-18 01:33N 54°23' E 018°40'0 0.0
2017-Mar-18 00:33N 54°23' E 018°40'0 0.0
2017-Mar-17 23:33N 54°23' E 018°40'0 0.0
2017-Mar-17 22:33N 54°23' E 018°40'0 0.0
2017-Mar-17 21:33N 54°23' E 018°40'0 0.0
2017-Mar-17 20:34N 54°23' E 018°40'0 0.0
2017-Mar-17 19:33N 54°23' E 018°40'0 0.0
2017-Mar-17 18:33N 54°23' E 018°40'0 0.0
2017-Mar-17 17:33N 54°23' E 018°40'0 0.0
2017-Mar-17 16:33N 54°23' E 018°40'0 0.0
2017-Mar-17 15:33N 54°23' E 018°40'0 0.3
2017-Mar-17 14:33N 54°23' E 018°39'0 0.1
2017-Mar-17 13:33N 54°23' E 018°39'0 0.0
2017-Mar-17 12:33N 54°23' E 018°39'0 0.0
2017-Mar-17 11:33N 54°23' E 018°39'0 0.0
2017-Mar-17 10:33N 54°23' E 018°39'0 0.0
2017-Mar-17 09:33N 54°23' E 018°39'0 0.0
2017-Mar-17 08:33N 54°23' E 018°39'0 0.0
2017-Mar-17 07:34N 54°23' E 018°39'0 0.0
2017-Mar-17 06:34N 54°23' E 018°39'  

Dump ship's entire track history